Time;durP1;ratioP1;P1;durP2;ratioP2;P2;SDS_P1;SDS_P2;PMS_P1;PMS_P2;Temp;Humidity;BMP_temperature;BMP_pressure;BME280_temperature;BME280_humidity;BME280_pressure;Samples;Min_cycle;Max_cycle;Signal;HPM_P1;HPM_P2
2023/03/19 00:02:16;;;;;;;24.30;15.50;;;10.00;99.90;;;;;;5095305;28;20044;-47
2023/03/19 00:04:41;;;;;;;20.42;13.85;;;10.60;99.90;;;;;;5095369;28;20044;-48
2023/03/19 00:07:07;;;;;;;21.88;13.55;;;10.00;99.90;;;;;;5095335;28;20043;-48
2023/03/19 00:09:33;;;;;;;22.15;15.45;;;10.40;99.90;;;;;;5095281;28;20032;-50
2023/03/19 00:11:59;;;;;;;23.02;17.02;;;10.20;99.90;;;;;;5095147;28;20066;-47
2023/03/19 00:14:24;;;;;;;22.77;16.45;;;10.00;99.90;;;;;;5095454;28;20101;-49
2023/03/19 00:16:50;;;;;;;23.52;16.10;;;10.40;99.90;;;;;;5095293;28;20048;-48
2023/03/19 00:19:16;;;;;;;24.52;17.58;;;10.40;99.90;;;;;;5095023;28;20056;-48
2023/03/19 00:21:42;;;;;;;26.30;16.42;;;10.20;99.90;;;;;;5094898;28;20040;-49
2023/03/19 00:24:08;;;;;;;25.50;18.17;;;10.10;99.90;;;;;;5095147;28;20509;-47
2023/03/19 00:26:35;;;;;;;24.75;18.17;;;9.70;99.90;;;;;;5094896;28;20036;-47
2023/03/19 00:29:00;;;;;;;25.98;17.70;;;9.70;99.90;;;;;;5095152;28;20111;-48
2023/03/19 00:31:27;;;;;;;24.00;17.70;;;9.70;99.90;;;;;;5094979;28;20115;-49
2023/03/19 00:33:56;;;;;;;25.15;17.45;;;9.80;99.90;;;;;;5095126;28;20035;-47
2023/03/19 00:36:22;;;;;;;25.20;16.75;;;10.10;99.90;;;;;;5094886;28;20098;-48
2023/03/19 00:38:48;;;;;;;26.02;17.23;;;10.30;99.90;;;;;;5094873;28;20040;-48
2023/03/19 00:41:14;;;;;;;25.58;17.38;;;10.40;99.90;;;;;;5094444;28;20050;-49
2023/03/19 00:43:40;;;;;;;24.15;16.60;;;10.40;99.90;;;;;;5094824;28;20044;-48
2023/03/19 00:46:06;;;;;;;26.98;18.25;;;9.80;99.90;;;;;;5094727;28;20036;-50
2023/03/19 00:48:32;;;;;;;26.40;16.75;;;9.90;99.90;;;;;;5094552;28;20040;-49
2023/03/19 00:51:06;;;;;;;23.98;16.98;;;10.40;99.90;;;;;;5094381;28;20507;-50
2023/03/19 00:53:35;;;;;;;21.80;15.65;;;10.40;99.90;;;;;;5094310;28;20044;-51
2023/03/19 00:56:01;;;;;;;23.55;15.88;;;10.40;99.90;;;;;;5093398;28;20043;-51
2023/03/19 00:58:27;;;;;;;25.90;15.23;;;10.40;99.90;;;;;;5094381;28;20036;-50
2023/03/19 01:00:53;;;;;;;21.42;14.23;;;10.40;99.90;;;;;;5092931;28;20086;-51
2023/03/19 01:03:19;;;;;;;22.33;14.00;;;10.40;99.90;;;;;;5094176;28;20040;-47
2023/03/19 01:05:48;;;;;;;23.55;16.20;;;9.90;99.90;;;;;;5093344;28;20043;-47
2023/03/19 01:08:15;;;;;;;21.13;14.88;;;10.40;99.90;;;;;;5094129;28;20050;-47
2023/03/19 01:10:41;;;;;;;21.88;13.95;;;9.80;99.90;;;;;;5092927;28;20040;-48
2023/03/19 01:13:06;;;;;;;21.42;14.93;;;9.80;99.90;;;;;;5093999;28;20140;-49
2023/03/19 01:15:37;;;;;;;20.30;13.40;;;10.30;99.90;;;;;;5076136;28;20040;-52
2023/03/19 01:18:03;;;;;;;15.82;11.65;;;10.50;99.90;;;;;;5093785;28;20056;-48
2023/03/19 01:20:28;;;;;;;17.23;11.35;;;9.90;99.90;;;;;;5094321;28;20101;-47
2023/03/19 01:22:54;;;;;;;17.60;12.40;;;10.00;99.90;;;;;;5093598;28;20040;-47
2023/03/19 01:25:20;;;;;;;17.85;11.23;;;10.60;99.90;;;;;;5092598;28;20036;-47
2023/03/19 01:27:46;;;;;;;17.42;10.25;;;10.10;99.90;;;;;;5093721;28;20036;-48
2023/03/19 01:30:12;;;;;;;17.05;11.43;;;10.10;99.90;;;;;;5093925;28;20039;-48
2023/03/19 01:32:38;;;;;;;19.48;9.88;;;10.00;99.90;;;;;;5093513;28;20095;-47
2023/03/19 01:35:04;;;;;;;16.85;10.35;;;10.20;99.90;;;;;;5093770;28;20040;-47
2023/03/19 01:37:30;;;;;;;16.65;9.43;;;10.70;99.90;;;;;;5093741;28;20124;-47
2023/03/19 01:39:55;;;;;;;16.98;10.55;;;10.30;99.90;;;;;;5093617;28;20460;-49
2023/03/19 01:42:21;;;;;;;15.68;9.48;;;10.40;99.90;;;;;;5093466;28;20051;-47
2023/03/19 01:44:48;;;;;;;15.32;10.40;;;10.10;99.90;;;;;;5093615;28;20040;-47
2023/03/19 01:47:27;;;;;;;18.20;12.15;;;10.70;99.90;;;;;;5093919;28;20114;-48
2023/03/19 01:49:55;;;;;;;17.25;11.85;;;10.70;99.90;;;;;;5093049;28;20047;-48
2023/03/19 01:52:24;;;;;;;19.17;11.70;;;10.10;99.90;;;;;;5091861;28;20047;-48
2023/03/19 01:54:51;;;;;;;18.10;12.50;;;10.70;99.90;;;;;;5091891;28;20472;-48
2023/03/19 01:57:17;;;;;;;16.80;12.38;;;10.20;99.90;;;;;;5093350;28;20395;-47
2023/03/19 01:59:49;;;;;;;16.17;12.40;;;10.70;99.90;;;;;;5093195;28;20082;-52
2023/03/19 02:02:20;;;;;;;16.60;11.48;;;10.60;99.90;;;;;;5093085;28;20356;-50
2023/03/19 02:04:50;;;;;;;15.07;10.07;;;10.00;99.90;;;;;;5092037;28;20043;-48
2023/03/19 02:07:16;;;;;;;15.38;10.68;;;10.70;99.90;;;;;;5092951;28;20040;-49
2023/03/19 02:09:42;;;;;;;16.88;9.50;;;10.70;99.90;;;;;;5093183;28;20537;-48
2023/03/19 02:12:08;;;;;;;15.90;9.18;;;10.10;99.90;;;;;;5092993;28;20399;-48
2023/03/19 02:14:34;;;;;;;14.65;9.32;;;10.70;99.90;;;;;;5092823;28;20453;-47
2023/03/19 02:17:00;;;;;;;13.07;8.52;;;10.70;99.90;;;;;;5092798;28;20087;-48
2023/03/19 02:19:56;;;;;;;13.68;8.95;;;10.50;99.90;;;;;;5092366;28;20055;-48
2023/03/19 02:22:25;;;;;;;13.95;8.43;;;10.40;99.90;;;;;;5074161;28;20044;-52
2023/03/19 02:25:24;;;;;;;14.35;8.57;;;10.70;99.90;;;;;;5092792;28;20086;-49
2023/03/19 02:27:50;;;;;;;13.00;8.88;;;10.10;99.90;;;;;;5092815;28;20110;-48
2023/03/19 02:30:29;;;;;;;14.77;8.77;;;10.10;99.90;;;;;;5092811;28;20154;-51
2023/03/19 02:32:55;;;;;;;14.50;9.63;;;10.40;99.90;;;;;;5092558;28;20117;-51
2023/03/19 02:35:21;;;;;;;17.70;10.75;;;10.30;99.90;;;;;;5092650;28;20083;-51
2023/03/19 02:37:46;;;;;;;14.00;9.77;;;10.60;99.90;;;;;;5092518;28;20051;-52
2023/03/19 02:40:20;;;;;;;14.13;9.68;;;10.70;99.90;;;;;;5092701;28;20502;-51
2023/03/19 02:42:45;;;;;;;16.17;10.00;;;10.00;99.90;;;;;;5092487;28;20083;-48
2023/03/19 02:45:12;;;;;;;14.32;9.57;;;10.00;99.90;;;;;;5092178;28;20415;-49
2023/03/19 02:47:37;;;;;;;15.35;10.38;;;10.60;99.90;;;;;;5092512;28;20438;-49
2023/03/19 02:50:03;;;;;;;16.10;9.93;;;10.60;99.90;;;;;;5092120;28;20047;-50
2023/03/19 02:52:29;;;;;;;16.45;10.70;;;10.70;99.90;;;;;;5092111;28;20480;-49
2023/03/19 02:54:55;;;;;;;15.98;9.27;;;10.30;99.90;;;;;;5092372;28;20035;-49
2023/03/19 02:57:20;;;;;;;14.63;9.25;;;10.00;99.90;;;;;;5092442;28;20063;-49
2023/03/19 02:59:46;;;;;;;15.48;9.27;;;10.60;99.90;;;;;;5092260;28;20428;-47
2023/03/19 03:02:12;;;;;;;14.80;9.48;;;10.00;99.90;;;;;;5092274;28;20078;-47
2023/03/19 03:04:37;;;;;;;15.18;8.80;;;10.00;99.90;;;;;;5092048;28;20055;-47
2023/03/19 03:07:05;;;;;;;13.70;9.18;;;10.30;99.90;;;;;;5092057;28;20400;-48
2023/03/19 03:09:30;;;;;;;14.48;8.45;;;10.00;99.90;;;;;;5092163;28;20040;-48
2023/03/19 03:11:56;;;;;;;13.45;8.27;;;10.10;99.90;;;;;;5092346;28;20035;-47
2023/03/19 03:14:22;;;;;;;16.83;9.55;;;10.50;99.90;;;;;;5090929;28;20130;-48
2023/03/19 03:16:48;;;;;;;16.40;8.48;;;10.10;99.90;;;;;;5090840;28;20384;-49
2023/03/19 03:19:14;;;;;;;11.90;8.57;;;10.60;99.90;;;;;;5091214;28;20080;-50
2023/03/19 03:21:40;;;;;;;16.02;9.52;;;9.90;99.90;;;;;;5090715;28;20040;-48
2023/03/19 03:24:06;;;;;;;12.48;8.30;;;10.30;99.90;;;;;;5092023;28;20040;-49
2023/03/19 03:26:33;;;;;;;13.40;8.80;;;9.90;99.90;;;;;;5091962;28;20040;-50
2023/03/19 03:28:59;;;;;;;13.80;9.27;;;9.90;99.90;;;;;;5091830;28;20040;-50
2023/03/19 03:31:25;;;;;;;14.15;9.40;;;10.50;99.90;;;;;;5092015;28;20430;-48
2023/03/19 03:33:51;;;;;;;13.93;8.50;;;9.90;99.90;;;;;;5090729;28;20492;-49
2023/03/19 03:36:17;;;;;;;13.57;8.15;;;10.50;99.90;;;;;;5091922;28;20048;-50
2023/03/19 03:38:44;;;;;;;14.02;9.13;;;10.00;99.90;;;;;;5091998;28;20036;-50
2023/03/19 03:41:10;;;;;;;12.55;8.02;;;10.20;99.90;;;;;;5090478;28;20051;-48
2023/03/19 03:43:35;;;;;;;11.82;7.60;;;9.80;99.90;;;;;;5091631;28;20559;-49
2023/03/19 03:46:01;;;;;;;11.45;7.63;;;10.10;99.90;;;;;;5091525;28;20039;-51
2023/03/19 03:48:27;;;;;;;10.82;6.60;;;9.90;99.90;;;;;;5090585;28;20102;-50
2023/03/19 03:50:53;;;;;;;10.80;6.05;;;9.80;99.90;;;;;;5091397;28;20059;-50
2023/03/19 03:53:18;;;;;;;11.18;6.75;;;9.90;99.90;;;;;;5091858;28;20052;-51
2023/03/19 03:55:44;;;;;;;12.40;7.30;;;9.90;99.90;;;;;;5091722;28;20038;-50
2023/03/19 03:58:11;;;;;;;12.20;6.40;;;9.90;99.90;;;;;;5091407;28;20145;-51
2023/03/19 04:00:37;;;;;;;9.68;6.38;;;10.40;99.90;;;;;;5091602;28;20051;-51
2023/03/19 04:03:03;;;;;;;12.52;6.93;;;10.50;99.90;;;;;;5091456;28;20048;-49
2023/03/19 04:05:29;;;;;;;9.93;6.25;;;10.60;99.90;;;;;;5090232;28;20040;-50
2023/03/19 04:07:55;;;;;;;10.23;6.82;;;10.50;99.90;;;;;;5073796;28;20049;-48
2023/03/19 04:10:22;;;;;;;9.82;6.03;;;9.90;99.90;;;;;;5091413;28;20115;-47
2023/03/19 04:12:48;;;;;;;11.00;6.68;;;10.50;99.90;;;;;;5091650;28;20059;-50
2023/03/19 04:15:14;;;;;;;11.73;6.53;;;10.30;99.90;;;;;;5091481;28;20044;-48
2023/03/19 04:17:40;;;;;;;11.02;6.57;;;10.40;99.90;;;;;;5090312;28;20101;-48
2023/03/19 04:20:07;;;;;;;10.63;5.65;;;10.40;99.90;;;;;;5091672;28;20047;-50
2023/03/19 04:22:33;;;;;;;10.07;5.57;;;10.10;99.90;;;;;;5091567;28;20043;-50
2023/03/19 04:24:59;;;;;;;12.15;6.43;;;9.90;99.90;;;;;;5091292;28;20480;-52
2023/03/19 04:27:25;;;;;;;10.15;6.13;;;10.10;99.90;;;;;;5091550;28;20158;-47
2023/03/19 04:29:51;;;;;;;10.15;6.30;;;10.40;99.90;;;;;;5091302;28;20064;-48
2023/03/19 04:32:16;;;;;;;10.73;6.45;;;10.40;99.90;;;;;;5094599;28;20115;-47
2023/03/19 04:34:42;;;;;;;12.57;7.43;;;10.50;99.90;;;;;;5095050;28;20105;-47
2023/03/19 04:37:09;;;;;;;11.65;5.65;;;9.80;99.90;;;;;;5094974;28;20170;-47
2023/03/19 04:39:38;;;;;;;10.13;6.20;;;10.20;99.90;;;;;;5094684;28;20051;-49
2023/03/19 04:42:03;;;;;;;9.75;6.45;;;10.50;99.90;;;;;;5093427;28;20453;-48
2023/03/19 04:44:30;;;;;;;10.27;6.10;;;9.90;99.90;;;;;;5094664;28;20154;-49
2023/03/19 04:46:56;;;;;;;13.38;6.90;;;10.50;99.90;;;;;;5094442;28;20047;-48
2023/03/19 04:49:23;;;;;;;11.93;6.32;;;9.90;99.90;;;;;;5094473;28;20040;-47
2023/03/19 04:51:49;;;;;;;10.15;6.20;;;10.40;99.90;;;;;;5094579;28;20119;-47
2023/03/19 04:54:15;;;;;;;11.48;6.60;;;10.40;99.90;;;;;;5094667;28;20120;-47
2023/03/19 04:56:41;;;;;;;11.52;6.57;;;10.50;99.90;;;;;;5094414;28;20059;-48
2023/03/19 04:59:07;;;;;;;9.38;5.85;;;10.40;99.90;;;;;;5093177;28;20044;-51
2023/03/19 05:01:33;;;;;;;12.35;6.32;;;10.50;99.90;;;;;;5094334;28;20062;-50
2023/03/19 05:03:59;;;;;;;8.98;6.25;;;10.50;99.90;;;;;;5092921;28;20072;-49
2023/03/19 05:06:26;;;;;;;9.73;5.97;;;9.80;99.90;;;;;;5094291;28;20040;-51
2023/03/19 05:08:51;;;;;;;10.70;6.55;;;9.80;99.90;;;;;;5094161;28;20391;-50
2023/03/19 05:11:17;;;;;;;12.10;7.85;;;10.40;99.90;;;;;;5094056;28;20093;-48
2023/03/19 05:13:43;;;;;;;10.18;7.20;;;10.10;99.90;;;;;;5075933;28;20094;-49
2023/03/19 05:16:09;;;;;;;12.45;8.02;;;10.30;99.90;;;;;;5093916;28;20109;-52
2023/03/19 05:18:35;;;;;;;11.27;8.30;;;9.60;99.90;;;;;;5094009;28;20409;-48
2023/03/19 05:21:01;;;;;;;11.07;7.72;;;10.20;99.90;;;;;;5093684;28;20475;-48
2023/03/19 05:23:27;;;;;;;11.57;7.65;;;9.90;99.90;;;;;;5093825;28;20083;-50
2023/03/19 05:25:53;;;;;;;10.52;7.00;;;10.00;99.90;;;;;;5092559;28;20534;-49
2023/03/19 05:28:19;;;;;;;12.48;7.20;;;10.30;99.90;;;;;;5093790;28;20446;-51
2023/03/19 05:30:45;;;;;;;12.63;7.53;;;10.00;99.90;;;;;;5093542;28;20032;-48
2023/03/19 05:33:11;;;;;;;11.75;7.97;;;9.90;99.90;;;;;;5093582;28;20056;-48
2023/03/19 05:35:38;;;;;;;13.48;8.68;;;9.80;99.90;;;;;;5092372;28;20404;-47
2023/03/19 05:38:04;;;;;;;12.75;8.68;;;9.50;99.90;;;;;;5093802;28;20036;-48
2023/03/19 05:40:31;;;;;;;15.82;8.70;;;9.20;99.90;;;;;;5092383;28;20044;-48
2023/03/19 05:42:56;;;;;;;13.77;9.13;;;9.70;99.90;;;;;;5092753;28;20176;-48
2023/03/19 05:45:22;;;;;;;15.70;9.32;;;9.50;99.90;;;;;;5093271;28;20110;-48
2023/03/19 05:47:49;;;;;;;16.00;10.50;;;9.20;99.90;;;;;;5093605;28;20465;-48
2023/03/19 05:50:16;;;;;;;16.65;10.38;;;9.70;99.90;;;;;;5093102;28;20089;-48
2023/03/19 05:52:41;;;;;;;18.42;11.98;;;9.40;99.90;;;;;;5093166;28;20078;-50
2023/03/19 05:55:08;;;;;;;17.23;10.82;;;9.20;99.90;;;;;;5093259;28;20496;-48
2023/03/19 05:57:34;;;;;;;17.85;10.70;;;9.60;99.90;;;;;;5093104;28;20040;-49
2023/03/19 06:00:00;;;;;;;17.88;10.18;;;9.30;99.90;;;;;;5092031;28;20525;-49
2023/03/19 06:02:26;;;;;;;17.75;10.88;;;8.90;99.90;;;;;;5093091;28;20039;-50
2023/03/19 06:04:51;;;;;;;19.08;11.02;;;9.40;99.90;;;;;;5090615;28;20476;-49
2023/03/19 06:07:17;;;;;;;17.48;10.55;;;8.80;99.90;;;;;;5091318;28;20111;-50
2023/03/19 06:09:43;;;;;;;18.35;11.32;;;9.40;99.90;;;;;;5091371;28;20036;-49
2023/03/19 06:12:09;;;;;;;17.77;11.07;;;9.00;99.90;;;;;;5091277;28;20047;-49
2023/03/19 06:14:34;;;;;;;17.70;10.98;;;8.90;99.90;;;;;;5091661;28;20040;-49
2023/03/19 06:17:00;;;;;;;18.15;11.23;;;9.40;99.90;;;;;;5090029;28;20127;-50
2023/03/19 06:19:26;;;;;;;18.33;11.13;;;9.10;99.90;;;;;;5091216;28;20223;-50
2023/03/19 06:21:51;;;;;;;18.88;11.02;;;9.40;99.90;;;;;;5091085;28;20040;-47
2023/03/19 06:24:17;;;;;;;14.65;9.57;;;8.80;99.90;;;;;;5091160;28;20055;-49
2023/03/19 06:26:43;;;;;;;16.92;10.65;;;8.70;99.90;;;;;;5091075;28;20035;-52
2023/03/19 06:29:09;;;;;;;16.50;10.57;;;9.20;99.90;;;;;;5089660;28;20047;-50
2023/03/19 06:31:38;;;;;;;16.65;10.25;;;9.40;99.90;;;;;;5091167;28;20032;-50
2023/03/19 06:34:04;;;;;;;15.30;10.05;;;9.40;99.90;;;;;;5091066;28;20097;-53
2023/03/19 06:36:29;;;;;;;17.30;9.60;;;8.80;99.90;;;;;;5091238;28;20036;-50
2023/03/19 06:38:55;;;;;;;20.42;10.70;;;9.10;99.90;;;;;;5091033;28;20093;-53
2023/03/19 06:41:21;;;;;;;16.80;10.63;;;8.80;99.90;;;;;;5089794;28;20813;-50
2023/03/19 06:43:47;;;;;;;15.18;9.40;;;9.10;99.90;;;;;;5080447;28;20045;-49
2023/03/19 06:46:12;;;;;;;14.77;9.95;;;9.40;99.90;;;;;;5079495;28;20048;-52
2023/03/19 06:48:38;;;;;;;16.73;10.15;;;9.40;99.90;;;;;;5079621;28;20031;-53
2023/03/19 06:51:04;;;;;;;16.60;9.98;;;8.80;99.90;;;;;;5082265;28;20130;-50
2023/03/19 06:53:30;;;;;;;17.75;10.57;;;8.90;99.90;;;;;;5080318;28;20118;-49
2023/03/19 06:55:55;;;;;;;14.98;9.57;;;9.10;99.90;;;;;;5080196;28;20725;-49
2023/03/19 06:58:21;;;;;;;16.02;10.45;;;9.00;99.90;;;;;;5079297;28;20395;-49
2023/03/19 07:00:47;;;;;;;16.48;10.65;;;9.70;99.90;;;;;;5081628;28;20039;-48
2023/03/19 07:03:12;;;;;;;16.25;9.88;;;9.10;99.90;;;;;;5082384;28;20126;-49
2023/03/19 07:05:38;;;;;;;15.02;10.05;;;9.20;99.90;;;;;;5090628;28;20044;-49
2023/03/19 07:08:10;;;;;;;16.10;10.40;;;9.80;99.90;;;;;;5090438;28;20062;-49
2023/03/19 07:10:37;;;;;;;17.05;10.50;;;9.30;99.90;;;;;;5089157;28;20083;-49
2023/03/19 07:13:03;;;;;;;14.85;10.40;;;9.20;99.90;;;;;;5090393;28;20040;-48
2023/03/19 07:15:29;;;;;;;14.75;9.70;;;9.60;99.90;;;;;;5090790;28;20036;-49
2023/03/19 07:17:56;;;;;;;15.93;10.10;;;9.90;99.90;;;;;;5090225;28;20100;-50
2023/03/19 07:20:22;;;;;;;13.98;8.07;;;9.90;99.90;;;;;;5090469;28;20051;-49
2023/03/19 07:22:50;;;;;;;12.30;7.70;;;9.70;99.90;;;;;;5090360;28;20043;-49
2023/03/19 07:25:16;;;;;;;15.95;10.25;;;9.30;99.90;;;;;;5089177;28;20105;-49
2023/03/19 07:27:41;;;;;;;16.38;10.55;;;9.70;99.90;;;;;;5090511;28;20036;-49
2023/03/19 07:30:08;;;;;;;16.05;11.15;;;10.10;99.90;;;;;;5090467;28;20179;-48
2023/03/19 07:32:34;;;;;;;15.75;10.48;;;10.20;99.90;;;;;;5090460;28;20040;-49
2023/03/19 07:35:00;;;;;;;16.95;11.23;;;9.80;99.90;;;;;;5090412;28;20036;-53
2023/03/19 07:37:26;;;;;;;18.25;11.32;;;9.80;99.90;;;;;;5090129;28;20491;-49
2023/03/19 07:39:52;;;;;;;15.95;11.60;;;9.70;99.90;;;;;;5088884;28;20043;-51
2023/03/19 07:42:17;;;;;;;17.30;11.65;;;10.10;99.90;;;;;;5090301;28;20387;-49
2023/03/19 07:44:43;;;;;;;14.27;9.02;;;9.80;99.90;;;;;;5088735;28;20055;-51
2023/03/19 07:47:09;;;;;;;17.00;11.00;;;9.90;99.90;;;;;;5088417;28;20063;-49
2023/03/19 07:49:35;;;;;;;18.42;13.00;;;10.50;99.90;;;;;;5081507;28;20115;-51
2023/03/19 07:52:00;;;;;;;19.52;12.43;;;10.50;99.90;;;;;;5088705;28;20229;-50
2023/03/19 07:54:26;;;;;;;19.45;12.57;;;10.30;99.90;;;;;;5089881;28;20044;-48
2023/03/19 07:56:52;;;;;;;20.00;13.55;;;10.50;99.90;;;;;;5090084;28;20040;-49
2023/03/19 07:59:17;;;;;;;22.02;14.30;;;10.30;99.90;;;;;;5089996;28;20115;-49
2023/03/19 08:01:43;;;;;;;22.40;15.50;;;10.00;99.90;;;;;;5089994;28;20102;-53
2023/03/19 08:04:09;;;;;;;21.80;14.93;;;10.20;99.90;;;;;;5090258;28;20047;-50
2023/03/19 08:06:35;;;;;;;23.98;15.32;;;10.10;99.90;;;;;;5093975;28;20036;-50
2023/03/19 08:09:00;;;;;;;23.80;15.40;;;10.10;99.90;;;;;;5093745;28;20113;-53
2023/03/19 08:11:28;;;;;;;21.23;13.95;;;10.40;99.90;;;;;;5093961;28;20044;-52
2023/03/19 08:13:54;;;;;;;23.27;14.60;;;10.80;99.90;;;;;;5093741;28;20036;-48
2023/03/19 08:16:20;;;;;;;24.67;15.98;;;10.80;99.90;;;;;;5094137;28;20040;-49
2023/03/19 08:18:46;;;;;;;24.83;16.40;;;10.50;99.90;;;;;;5092189;28;20091;-52
2023/03/19 08:21:11;;;;;;;22.70;16.83;;;10.30;99.90;;;;;;5093622;28;20055;-53
2023/03/19 08:23:37;;;;;;;23.60;16.48;;;10.70;99.90;;;;;;5093386;28;20180;-48
2023/03/19 08:26:03;;;;;;;26.92;19.42;;;10.50;99.90;;;;;;5093612;28;20385;-49
2023/03/19 08:28:29;;;;;;;29.38;20.85;;;11.00;99.90;;;;;;5093369;28;20047;-53
2023/03/19 08:30:55;;;;;;;29.55;20.65;;;10.50;99.90;;;;;;5093462;28;20036;-49
2023/03/19 08:33:21;;;;;;;26.90;21.20;;;10.60;99.90;;;;;;5088374;28;20672;-49
2023/03/19 08:35:47;;;;;;;26.80;19.98;;;10.50;99.90;;;;;;5079180;28;20086;-49
2023/03/19 08:38:12;;;;;;;27.95;19.73;;;10.90;99.90;;;;;;5078219;28;20431;-50
2023/03/19 08:40:38;;;;;;;27.38;20.15;;;11.00;99.90;;;;;;5072866;28;20045;-50
2023/03/19 08:43:05;;;;;;;28.13;21.40;;;11.00;99.90;;;;;;5073013;28;20052;-50
2023/03/19 08:45:31;;;;;;;28.00;19.60;;;10.90;99.90;;;;;;5055177;28;20111;-49
2023/03/19 08:47:57;;;;;;;29.25;19.35;;;10.80;99.90;;;;;;5072747;28;20515;-50
2023/03/19 08:50:23;;;;;;;27.17;19.05;;;10.30;99.90;;;;;;5089411;28;20052;-51
2023/03/19 08:52:49;;;;;;;26.70;19.52;;;10.80;99.90;;;;;;5088641;28;20044;-49
2023/03/19 08:55:15;;;;;;;29.55;21.20;;;10.50;99.90;;;;;;5081188;28;20028;-49
2023/03/19 08:57:41;;;;;;;31.35;22.40;;;10.70;99.90;;;;;;5074674;28;20045;-51
2023/03/19 09:00:07;;;;;;;30.95;21.05;;;10.70;99.90;;;;;;5072695;28;20503;-49
2023/03/19 09:02:33;;;;;;;30.88;20.83;;;10.70;99.90;;;;;;5072677;28;20032;-48
2023/03/19 09:04:59;;;;;;;28.85;19.90;;;10.60;99.90;;;;;;5072512;28;20051;-50
2023/03/19 09:07:25;;;;;;;30.08;20.92;;;10.50;99.90;;;;;;5072367;28;20493;-50
2023/03/19 09:09:50;;;;;;;31.60;22.38;;;10.40;99.90;;;;;;5072022;28;20037;-48
2023/03/19 09:12:17;;;;;;;28.00;19.98;;;10.40;99.90;;;;;;5072851;28;20053;-48
2023/03/19 09:14:43;;;;;;;30.30;20.13;;;10.60;99.90;;;;;;5072421;28;20040;-50
2023/03/19 09:17:10;;;;;;;31.50;21.02;;;10.40;99.90;;;;;;5071081;28;20141;-51
2023/03/19 09:19:36;;;;;;;26.33;18.83;;;10.40;99.90;;;;;;5072697;28;20481;-51
2023/03/19 09:22:03;;;;;;;31.20;20.42;;;10.70;99.90;;;;;;5072665;28;20131;-50
2023/03/19 09:24:29;;;;;;;29.35;21.20;;;10.90;99.90;;;;;;5072177;28;20056;-51
2023/03/19 09:26:55;;;;;;;27.08;19.10;;;11.00;99.90;;;;;;5071415;28;20433;-50
2023/03/19 09:29:20;;;;;;;28.95;19.67;;;10.90;99.90;;;;;;5070646;28;20055;-47
2023/03/19 09:31:46;;;;;;;30.00;19.42;;;11.00;99.90;;;;;;5071324;28;20493;-50
2023/03/19 09:34:12;;;;;;;27.85;19.42;;;11.10;99.90;;;;;;5070331;28;20066;-51
2023/03/19 09:36:38;;;;;;;27.70;19.42;;;11.10;99.90;;;;;;5071539;28;20048;-48
2023/03/19 09:39:06;;;;;;;29.42;21.27;;;10.80;99.90;;;;;;5070120;28;20106;-48
2023/03/19 09:41:40;;;;;;;29.50;20.50;;;11.10;99.90;;;;;;5071688;28;20052;-49
2023/03/19 09:44:09;;;;;;;30.75;21.23;;;10.70;99.90;;;;;;5074637;28;20045;-48
2023/03/19 09:46:48;;;;;;;29.73;21.13;;;11.10;99.90;;;;;;5079761;28;20032;-49
2023/03/19 09:49:29;;;;;;;31.98;21.85;;;11.00;99.90;;;;;;5083389;28;20035;-48
2023/03/19 09:52:21;;;;;;;34.15;21.23;;;10.90;99.90;;;;;;5082322;28;20040;-48
2023/03/19 09:54:53;;;;;;;28.50;19.80;;;11.00;99.90;;;;;;5080225;28;20047;-49
2023/03/19 09:57:19;;;;;;;29.25;19.90;;;10.60;99.90;;;;;;5079527;28;20040;-48
2023/03/19 09:59:46;;;;;;;31.58;21.40;;;10.60;99.90;;;;;;5091473;28;20059;-49
2023/03/19 10:02:27;;;;;;;34.45;22.95;;;10.80;99.90;;;;;;5091880;28;20079;-49
2023/03/19 10:05:10;;;;;;;34.53;23.45;;;10.60;99.90;;;;;;5091459;28;20492;-49
2023/03/19 10:07:53;;;;;;;32.97;21.60;;;10.20;99.90;;;;;;5091637;28;20076;-48
2023/03/19 10:10:44;;;;;;;34.28;21.30;;;10.70;99.90;;;;;;5091221;28;20131;-48
2023/03/19 10:13:47;;;;;;;32.65;20.95;;;10.90;99.90;;;;;;5091089;28;20040;-47
2023/03/19 10:16:15;;;;;;;;;;;10.90;99.90;;;;;;5091452;28;20040;-50
2023/03/19 10:18:46;;;;;;;33.65;20.75;;;10.90;99.90;;;;;;5091039;28;19924;-49
2023/03/19 10:21:18;;;;;;;34.10;21.48;;;10.90;99.90;;;;;;5090632;28;20084;-47
2023/03/19 10:23:49;;;;;;;34.47;21.50;;;10.80;99.90;;;;;;5091189;28;20047;-48
2023/03/19 10:26:18;;;;;;;34.00;21.85;;;10.70;99.90;;;;;;5091299;28;20047;-49
2023/03/19 10:28:52;;;;;;;33.63;22.00;;;10.70;99.90;;;;;;5090792;28;20492;-51
2023/03/19 10:31:28;;;;;;;33.63;21.73;;;11.00;99.90;;;;;;5090934;28;20148;-47
2023/03/19 10:34:16;;;;;;;35.60;21.92;;;10.50;99.90;;;;;;5089607;28;20105;-47
2023/03/19 10:36:42;;;;;;;34.33;22.60;;;10.80;99.90;;;;;;5090500;28;20044;-48
2023/03/19 10:39:07;;;;;;;37.63;22.15;;;10.70;99.90;;;;;;5090600;28;20040;-48
2023/03/19 10:41:33;;;;;;;34.90;21.42;;;10.70;99.90;;;;;;5089737;28;20044;-50
2023/03/19 10:44:02;;;;;;;28.13;18.13;;;10.90;99.90;;;;;;5090881;28;20127;-48
2023/03/19 10:46:37;;;;;;;27.13;19.30;;;10.40;99.90;;;;;;5090681;28;20051;-49
2023/03/19 10:49:03;;;;;;;33.05;20.58;;;10.30;99.90;;;;;;5090398;28;20043;-49
2023/03/19 10:51:30;;;;;;;33.22;21.05;;;10.40;99.90;;;;;;5089105;28;20043;-50
2023/03/19 10:54:00;;;;;;;34.55;20.60;;;10.60;99.90;;;;;;5090836;28;20393;-48
2023/03/19 10:56:29;;;;;;;37.03;21.73;;;10.20;99.90;;;;;;5090656;28;20399;-51
2023/03/19 10:59:11;;;;;;;33.75;20.70;;;10.00;99.90;;;;;;5089478;28;20123;-51
2023/03/19 11:01:40;;;;;;;34.95;20.67;;;10.00;99.90;;;;;;5088909;28;20101;-49
2023/03/19 11:04:25;;;;;;;33.50;20.35;;;9.90;99.90;;;;;;5090371;28;20052;-50
2023/03/19 11:07:10;;;;;;;36.28;20.45;;;10.10;99.90;;;;;;5090414;28;20055;-48
2023/03/19 11:09:41;;;;;;;37.42;21.95;;;10.10;99.90;;;;;;5090524;28;20050;-47
2023/03/19 11:12:14;;;;;;;38.17;22.05;;;10.40;99.90;;;;;;5087941;28;20488;-52
2023/03/19 11:14:45;;;;;;;38.47;21.50;;;10.20;99.90;;;;;;5080630;28;20047;-47
2023/03/19 11:17:16;;;;;;;36.25;20.83;;;10.20;99.90;;;;;;5071466;28;20404;-48
2023/03/19 11:19:55;;;;;;;36.53;21.73;;;10.60;99.90;;;;;;5070245;28;20063;-50
2023/03/19 11:22:32;;;;;;;41.33;21.70;;;10.70;99.90;;;;;;5071742;28;20048;-48
2023/03/19 11:25:22;;;;;;;40.63;22.08;;;10.40;99.90;;;;;;5070581;28;21092;-50
2023/03/19 11:28:07;;;;;;;41.53;23.98;;;10.20;99.90;;;;;;5071518;28;20040;-48
2023/03/19 11:30:48;;;;;;;42.17;23.58;;;10.40;99.90;;;;;;5070128;28;20044;-48
2023/03/19 11:33:20;;;;;;;38.85;21.98;;;10.40;99.90;;;;;;5071277;28;20377;-47
2023/03/19 11:36:23;;;;;;;37.25;20.30;;;10.60;99.90;;;;;;5080875;28;20127;-48
2023/03/19 11:39:13;;;;;;;32.75;18.65;;;10.00;99.90;;;;;;5090432;28;20484;-49
2023/03/19 11:42:00;;;;;;;36.63;21.63;;;10.10;99.90;;;;;;5094927;28;20036;-49
2023/03/19 11:44:53;;;;;;;34.63;19.50;;;10.00;99.90;;;;;;5094808;28;20472;-51
2023/03/19 11:48:00;;;;;;;35.38;20.90;;;10.00;99.90;;;;;;5095628;28;20032;-48
2023/03/19 11:50:39;;;;;;;40.58;22.15;;;10.10;99.90;;;;;;5095270;28;20522;-47
2023/03/19 11:53:08;;;;;;;40.25;22.83;;;10.00;99.90;;;;;;5095887;28;20040;-47
2023/03/19 11:55:45;;;;;;;36.67;21.52;;;10.30;99.90;;;;;;5095646;28;20399;-47
2023/03/19 11:58:22;;;;;;;38.92;20.33;;;10.40;99.90;;;;;;5095416;28;20036;-48
2023/03/19 12:00:50;;;;;;;36.90;20.00;;;10.40;99.90;;;;;;5095396;28;20105;-48
2023/03/19 12:03:36;;;;;;;34.05;18.40;;;10.30;99.90;;;;;;5095011;28;20078;-47
2023/03/19 12:06:27;;;;;;;34.90;18.92;;;10.20;99.90;;;;;;5093177;28;20233;-48
2023/03/19 12:09:24;;;;;;;38.42;19.98;;;10.50;99.90;;;;;;5073269;28;20036;-47
2023/03/19 12:12:00;;;;;;;36.17;19.20;;;10.20;99.90;;;;;;5085098;28;20435;-52
2023/03/19 12:14:34;;;;;;;34.33;18.85;;;10.10;99.90;;;;;;5082215;28;20050;-50
2023/03/19 12:17:16;;;;;;;39.80;19.65;;;10.30;99.90;;;;;;5083434;28;20040;-53
2023/03/19 12:20:05;;;;;;;42.78;20.38;;;10.40;99.90;;;;;;5084428;28;20092;-51
2023/03/19 12:22:35;;;;;;;36.85;19.25;;;10.20;99.90;;;;;;5085259;28;20040;-51
2023/03/19 12:25:27;;;;;;;38.90;20.45;;;9.90;99.90;;;;;;5084284;28;20044;-48
2023/03/19 12:28:10;;;;;;;40.65;21.05;;;9.90;99.90;;;;;;5085577;28;20379;-48
2023/03/19 12:31:01;;;;;;;43.08;20.67;;;9.80;99.90;;;;;;5083783;28;20041;-49
2023/03/19 12:33:51;;;;;;;42.28;22.02;;;10.20;99.90;;;;;;5080230;28;20102;-48
2023/03/19 12:36:26;;;;;;;43.75;21.50;;;9.90;99.90;;;;;;5082284;28;20052;-50
2023/03/19 12:39:01;;;;;;;39.72;20.63;;;10.40;99.90;;;;;;5083321;28;20044;-48
2023/03/19 12:41:28;;;;;;;37.47;19.83;;;10.10;99.90;;;;;;5083258;28;20381;-47
2023/03/19 12:44:03;;;;;;;37.75;20.70;;;10.30;99.90;;;;;;5082059;28;20044;-47